Time;durP1;ratioP1;P1;durP2;ratioP2;P2;SDS_P1;SDS_P2;PMS_P1;PMS_P2;Temp;Humidity;BMP_temperature;BMP_pressure;BME280_temperature;BME280_humidity;BME280_pressure;Samples;Min_cycle;Max_cycle;Signal;HPM_P1;HPM_P2
2021/08/21 00:00:46;;;;;;;9.77;5.53;;;15.30;99.90;;;;;;5020819;28;20260;-90
2021/08/21 00:03:12;;;;;;;9.87;5.70;;;15.20;99.90;;;;;;5039570;28;20196;-89
2021/08/21 00:05:38;;;;;;;8.73;5.30;;;15.10;99.90;;;;;;5037352;28;20225;-90
2021/08/21 00:08:05;;;;;;;10.57;4.77;;;15.10;99.90;;;;;;5039137;28;20223;-90
2021/08/21 00:10:34;;;;;;;10.20;5.97;;;15.10;99.90;;;;;;5038095;28;20293;-90
2021/08/21 00:13:00;;;;;;;10.43;6.57;;;15.10;99.90;;;;;;5020868;28;20296;-90
2021/08/21 00:15:27;;;;;;;11.60;5.73;;;15.20;99.90;;;;;;5029135;28;20215;-90
2021/08/21 00:17:54;;;;;;;8.87;5.87;;;15.30;99.90;;;;;;5028136;28;20175;-90
2021/08/21 00:20:20;;;;;;;9.77;6.20;;;15.30;99.90;;;;;;5037604;28;20616;-90
2021/08/21 00:22:46;;;;;;;7.63;5.57;;;15.30;99.90;;;;;;5029428;28;20215;-89
2021/08/21 00:25:12;;;;;;;11.17;5.87;;;15.20;99.90;;;;;;5029297;28;20752;-90
2021/08/21 00:27:42;;;;;;;8.43;4.73;;;15.20;99.90;;;;;;5028427;28;20214;-89
2021/08/21 00:30:08;;;;;;;9.03;5.57;;;15.10;99.90;;;;;;5038957;28;20186;-89
2021/08/21 00:32:34;;;;;;;6.93;4.50;;;14.90;99.90;;;;;;5029085;28;20244;-89
2021/08/21 00:35:00;;;;;;;9.93;4.83;;;14.90;99.90;;;;;;5028720;28;20211;-90
2021/08/21 00:37:26;;;;;;;9.20;5.77;;;14.90;99.90;;;;;;5028278;28;20222;-89
2021/08/21 00:39:52;;;;;;;12.60;5.00;;;14.90;99.90;;;;;;5037832;28;20209;-89
2021/08/21 00:42:18;;;;;;;11.20;5.40;;;14.90;99.90;;;;;;5011841;28;20231;-89
2021/08/21 00:44:43;;;;;;;8.83;4.90;;;14.90;99.90;;;;;;5028965;28;20236;-90
2021/08/21 00:47:17;;;;;;;9.47;5.90;;;14.90;99.90;;;;;;5010592;28;20956;-89
2021/08/21 00:49:48;;;;;;;9.03;5.73;;;14.90;99.90;;;;;;5012571;28;20678;-89
2021/08/21 00:52:17;;;;;;;9.73;5.13;;;14.90;99.90;;;;;;5036533;28;20263;-89
2021/08/21 00:54:43;;;;;;;12.67;7.73;;;15.00;99.90;;;;;;5035247;28;20244;-90
2021/08/21 00:57:12;;;;;;;13.03;7.77;;;15.00;99.90;;;;;;5027569;28;20199;-90
2021/08/21 00:59:39;;;;;;;17.33;7.63;;;15.10;99.90;;;;;;5036429;28;20515;-90
2021/08/21 01:02:05;;;;;;;15.07;6.73;;;15.00;99.90;;;;;;5028381;28;20218;-89
2021/08/21 01:04:33;;;;;;;14.20;6.60;;;15.00;99.90;;;;;;5037964;28;20214;-89
2021/08/21 01:07:07;;;;;;;11.30;6.77;;;15.00;99.90;;;;;;5011952;28;20225;-90
2021/08/21 01:09:36;;;;;;;12.60;6.43;;;15.00;99.90;;;;;;5034167;28;20227;-90
2021/08/21 01:12:04;;;;;;;12.50;7.27;;;15.00;99.90;;;;;;5036612;28;20213;-88
2021/08/21 01:14:30;;;;;;;13.03;6.77;;;15.00;99.90;;;;;;5037042;28;20178;-89
2021/08/21 01:16:56;;;;;;;11.33;5.93;;;15.10;99.90;;;;;;5010778;28;20215;-89
2021/08/21 01:19:23;;;;;;;9.47;5.83;;;15.10;99.90;;;;;;5010595;28;20266;-88
2021/08/21 01:21:49;;;;;;;10.63;5.00;;;15.10;99.90;;;;;;5037453;28;20229;-89
2021/08/21 01:24:15;;;;;;;11.33;5.30;;;15.00;99.90;;;;;;5027799;28;20191;-89
2021/08/21 01:26:55;;;;;;;9.07;5.83;;;15.00;99.90;;;;;;5011466;28;20182;-89
2021/08/21 01:29:21;;;;;;;12.30;6.17;;;15.00;99.90;;;;;;5036568;28;20698;-89
2021/08/21 01:31:48;;;;;;;8.67;5.47;;;15.00;99.90;;;;;;5026656;28;20264;-90
2021/08/21 01:34:14;;;;;;;9.73;5.30;;;15.00;99.90;;;;;;5035513;28;20644;-89
2021/08/21 01:36:45;;;;;;;5.63;3.80;;;15.00;99.90;;;;;;5033231;28;20387;-88
2021/08/21 01:39:12;;;;;;;8.03;5.00;;;15.00;99.90;;;;;;5036424;28;20182;-89
2021/08/21 01:41:40;;;;;;;8.60;4.87;;;15.00;99.90;;;;;;5012127;28;20205;-88
2021/08/21 01:44:14;;;;;;;6.63;4.77;;;15.10;99.90;;;;;;5036266;28;20214;-90
2021/08/21 01:46:41;;;;;;;7.73;4.77;;;15.20;99.90;;;;;;5020791;28;20201;-89
2021/08/21 01:49:09;;;;;;;9.37;4.97;;;15.20;99.90;;;;;;5034827;28;20214;-89
2021/08/21 01:51:40;;;;;;;9.43;5.10;;;15.30;99.90;;;;;;5028149;28;20214;-89
2021/08/21 01:54:06;;;;;;;10.10;5.73;;;15.40;99.90;;;;;;5032577;28;20718;-90
2021/08/21 01:56:51;;;;;;;8.70;5.13;;;15.40;99.90;;;;;;5027756;28;20193;-89
2021/08/21 01:59:25;;;;;;;9.43;5.53;;;15.50;99.90;;;;;;5032703;28;20218;-89
2021/08/21 02:01:52;;;;;;;9.17;4.33;;;15.50;99.90;;;;;;5035235;28;20885;-89
2021/08/21 02:04:18;;;;;;;15.90;5.83;;;15.50;99.90;;;;;;5010771;28;20628;-89
2021/08/21 02:06:44;;;;;;;8.43;4.63;;;15.50;99.90;;;;;;5027173;28;20219;-89
2021/08/21 02:09:12;;;;;;;8.50;4.70;;;15.50;99.90;;;;;;5032980;28;20234;-89
2021/08/21 02:11:38;;;;;;;10.40;5.20;;;15.50;99.90;;;;;;5043488;28;20893;-90
2021/08/21 02:14:04;;;;;;;9.83;4.73;;;15.50;99.90;;;;;;5010316;28;20222;-89
2021/08/21 02:16:30;;;;;;;6.53;4.60;;;15.50;99.90;;;;;;5026540;28;20716;-89
2021/08/21 02:18:55;;;;;;;10.23;5.57;;;15.40;99.90;;;;;;5010122;28;20214;-89
2021/08/21 02:21:22;;;;;;;8.67;4.97;;;15.50;99.90;;;;;;5025997;28;20251;-89
2021/08/21 02:23:48;;;;;;;8.57;5.77;;;15.50;99.90;;;;;;5010848;28;20210;-90
2021/08/21 02:26:14;;;;;;;9.83;4.83;;;15.40;99.90;;;;;;5011712;28;20244;-89
2021/08/21 02:28:40;;;;;;;8.53;4.77;;;15.40;99.90;;;;;;5035820;28;20213;-89
2021/08/21 02:31:06;;;;;;;6.23;5.17;;;15.40;99.90;;;;;;5010946;28;20222;-89
2021/08/21 02:33:31;;;;;;;9.97;5.63;;;15.40;99.90;;;;;;5010762;28;20221;-90
2021/08/21 02:35:59;;;;;;;9.13;5.07;;;15.40;99.90;;;;;;5027003;28;21046;-90
2021/08/21 02:38:25;;;;;;;7.93;4.77;;;15.40;99.90;;;;;;5026727;28;20209;-90
2021/08/21 02:40:51;;;;;;;11.00;6.07;;;15.40;99.90;;;;;;5028060;28;20206;-89
2021/08/21 02:43:17;;;;;;;10.13;5.97;;;15.50;99.90;;;;;;5039245;28;20744;-89
2021/08/21 02:45:43;;;;;;;10.63;5.50;;;15.50;99.90;;;;;;5030328;28;20222;-89
2021/08/21 02:48:09;;;;;;;13.37;6.83;;;15.60;99.90;;;;;;5020454;28;20201;-89
2021/08/21 02:50:35;;;;;;;11.00;5.30;;;15.60;99.90;;;;;;5014613;28;20199;-89
2021/08/21 02:53:01;;;;;;;10.87;6.67;;;15.70;99.90;;;;;;5020261;28;20229;-89
2021/08/21 02:55:26;;;;;;;13.53;6.63;;;15.60;99.90;;;;;;5014774;28;20214;-89
2021/08/21 02:57:52;;;;;;;16.30;6.90;;;15.60;99.90;;;;;;5030898;28;20210;-89
2021/08/21 03:00:18;;;;;;;10.90;6.40;;;15.60;99.90;;;;;;5029745;28;20186;-89
2021/08/21 03:02:44;;;;;;;10.80;5.73;;;15.60;99.90;;;;;;5015095;28;20202;-89
2021/08/21 03:05:10;;;;;;;9.97;4.60;;;15.60;99.90;;;;;;5029720;28;20253;-89
2021/08/21 03:07:35;;;;;;;12.23;5.83;;;15.50;99.90;;;;;;5029507;28;20312;-90
2021/08/21 03:10:04;;;;;;;10.63;5.83;;;15.60;99.90;;;;;;5030321;28;20249;-88
2021/08/21 03:12:31;;;;;;;10.03;5.47;;;15.60;99.90;;;;;;5037553;28;20213;-89
2021/08/21 03:14:57;;;;;;;8.33;5.97;;;15.60;99.90;;;;;;5038455;28;20198;-90
2021/08/21 03:17:23;;;;;;;11.20;6.37;;;15.60;99.90;;;;;;5013769;28;20275;-90
2021/08/21 03:19:48;;;;;;;8.27;5.07;;;15.60;99.90;;;;;;5028978;28;20628;-90
2021/08/21 03:22:14;;;;;;;11.40;5.83;;;15.60;99.90;;;;;;5022619;28;20219;-90
2021/08/21 03:24:40;;;;;;;11.30;6.30;;;15.60;99.90;;;;;;5037328;28;20230;-90
2021/08/21 03:27:06;;;;;;;9.33;5.53;;;15.60;99.90;;;;;;5039527;28;20191;-90
2021/08/21 03:29:32;;;;;;;9.97;5.70;;;15.60;99.90;;;;;;5021226;28;20547;-90
2021/08/21 03:31:57;;;;;;;7.23;4.80;;;15.60;99.90;;;;;;5029096;28;20213;-90
2021/08/21 03:34:24;;;;;;;10.90;5.67;;;15.60;99.90;;;;;;5014443;28;20228;-90
2021/08/21 03:36:51;;;;;;;6.40;4.17;;;15.70;99.90;;;;;;5013611;28;20292;-90
2021/08/21 03:39:17;;;;;;;8.53;4.43;;;15.60;99.90;;;;;;5018218;28;20191;-90
2021/08/21 03:41:43;;;;;;;10.93;4.50;;;15.60;99.90;;;;;;5038145;28;20922;-90
2021/08/21 03:44:09;;;;;;;8.57;5.37;;;15.70;99.90;;;;;;5014041;28;20777;-90
2021/08/21 03:46:35;;;;;;;12.20;5.23;;;15.70;99.90;;;;;;5030325;28;20384;-89
2021/08/21 03:49:01;;;;;;;9.70;4.80;;;15.80;99.90;;;;;;5013620;28;20215;-90
2021/08/21 03:51:26;;;;;;;7.80;4.50;;;15.80;99.90;;;;;;5028661;28;20302;-90
2021/08/21 03:53:52;;;;;;;9.60;5.63;;;15.80;99.90;;;;;;5029112;28;21263;-90
2021/08/21 03:56:18;;;;;;;11.93;5.77;;;15.70;99.90;;;;;;5029035;28;20284;-89
2021/08/21 03:58:44;;;;;;;9.60;5.97;;;15.70;99.90;;;;;;5013118;28;20218;-89
2021/08/21 04:01:09;;;;;;;8.57;4.87;;;15.70;99.90;;;;;;5030418;28;20297;-89
2021/08/21 04:03:36;;;;;;;7.70;5.23;;;15.60;99.90;;;;;;5039591;28;20220;-89
2021/08/21 04:06:02;;;;;;;6.77;4.43;;;15.60;99.90;;;;;;5028790;28;20206;-89
2021/08/21 04:08:28;;;;;;;7.90;4.57;;;15.60;99.90;;;;;;5029480;28;20233;-89
2021/08/21 04:10:54;;;;;;;7.80;4.60;;;15.60;99.90;;;;;;5056762;28;20705;-89
2021/08/21 04:13:19;;;;;;;11.03;4.63;;;15.60;99.90;;;;;;5012880;28;20233;-89
2021/08/21 04:15:45;;;;;;;13.60;6.63;;;15.60;99.90;;;;;;5019761;28;20222;-89
2021/08/21 04:18:11;;;;;;;13.43;5.17;;;15.70;99.90;;;;;;5028868;28;20190;-89
2021/08/21 04:20:37;;;;;;;6.80;4.73;;;15.60;99.90;;;;;;5039443;28;20213;-89
2021/08/21 04:23:02;;;;;;;8.37;5.27;;;15.70;99.90;;;;;;5028697;28;20218;-89
2021/08/21 04:25:28;;;;;;;13.13;6.03;;;15.70;99.90;;;;;;5029258;28;20237;-90
2021/08/21 04:27:54;;;;;;;10.30;5.50;;;15.70;99.90;;;;;;5029300;28;20217;-88
2021/08/21 04:30:20;;;;;;;9.47;5.30;;;15.70;99.90;;;;;;5028866;28;20196;-89
2021/08/21 04:32:46;;;;;;;8.43;6.40;;;15.70;99.90;;;;;;5012471;28;20655;-89
2021/08/21 04:35:11;;;;;;;10.97;6.03;;;15.70;99.90;;;;;;5037164;28;20214;-89
2021/08/21 04:37:37;;;;;;;13.20;6.43;;;15.70;99.90;;;;;;5028532;28;20213;-89
2021/08/21 04:40:07;;;;;;;10.53;5.40;;;15.70;99.90;;;;;;5037214;28;20218;-89
2021/08/21 04:42:33;;;;;;;9.57;6.13;;;15.70;99.90;;;;;;5034564;28;21240;-90
2021/08/21 04:44:59;;;;;;;8.13;4.93;;;15.70;99.90;;;;;;5028710;28;20211;-90
2021/08/21 04:47:27;;;;;;;13.13;6.60;;;15.70;99.90;;;;;;5028657;28;20209;-90
2021/08/21 04:49:54;;;;;;;10.37;5.80;;;15.70;99.90;;;;;;5027495;28;20553;-89
2021/08/21 04:52:20;;;;;;;13.23;6.70;;;15.80;99.90;;;;;;5027832;28;20604;-90
2021/08/21 04:54:46;;;;;;;10.33;5.57;;;15.80;99.90;;;;;;5020084;28;20210;-89
2021/08/21 04:57:11;;;;;;;8.47;4.80;;;15.80;99.90;;;;;;5021060;28;20198;-90
2021/08/21 04:59:37;;;;;;;8.87;5.50;;;15.80;99.90;;;;;;5006897;28;20590;-89
2021/08/21 05:02:03;;;;;;;12.47;6.57;;;15.80;99.90;;;;;;5011101;28;20230;-88
2021/08/21 05:04:29;;;;;;;10.77;7.27;;;15.80;99.90;;;;;;5010613;28;20218;-89
2021/08/21 05:06:55;;;;;;;11.50;6.70;;;15.90;99.90;;;;;;5002438;28;20208;-89
2021/08/21 05:09:20;;;;;;;12.70;5.83;;;15.90;99.90;;;;;;5035235;28;20308;-89
2021/08/21 05:11:46;;;;;;;9.27;5.03;;;15.90;99.90;;;;;;5021060;28;20193;-87
2021/08/21 05:14:12;;;;;;;8.40;5.43;;;15.90;99.90;;;;;;5019124;28;20233;-90
2021/08/21 05:16:42;;;;;;;12.80;6.93;;;15.90;99.90;;;;;;5010908;28;20682;-90
2021/08/21 05:19:13;;;;;;;10.27;6.17;;;15.90;99.90;;;;;;5012882;28;20228;-90
2021/08/21 05:21:48;;;;;;;11.13;5.53;;;16.00;99.90;;;;;;5036833;28;20214;-92
2021/08/21 05:24:14;;;;;;;10.27;6.07;;;16.10;99.90;;;;;;5028573;28;20190;-88
2021/08/21 05:26:40;;;;;;;11.40;6.07;;;16.20;99.90;;;;;;5035331;28;20665;-89
2021/08/21 05:29:05;;;;;;;15.00;7.17;;;16.20;99.90;;;;;;5027226;28;20811;-88
2021/08/21 05:31:32;;;;;;;14.33;6.93;;;16.20;99.90;;;;;;5027391;28;20213;-88
2021/08/21 05:33:57;;;;;;;12.53;7.10;;;16.30;99.90;;;;;;5026319;28;20268;-89
2021/08/21 05:36:24;;;;;;;16.90;8.13;;;16.30;99.90;;;;;;5010331;28;20210;-88
2021/08/21 05:38:49;;;;;;;13.47;8.13;;;16.40;99.90;;;;;;5021149;28;20277;-89
2021/08/21 05:41:15;;;;;;;11.73;7.33;;;16.40;99.90;;;;;;5027054;28;20301;-88
2021/08/21 05:43:41;;;;;;;13.53;7.87;;;16.50;99.90;;;;;;5011304;28;20724;-88
2021/08/21 05:46:07;;;;;;;14.33;7.47;;;16.50;99.90;;;;;;5010190;28;20283;-88
2021/08/21 05:48:32;;;;;;;12.33;8.07;;;16.40;99.90;;;;;;5021055;28;20224;-89
2021/08/21 05:50:58;;;;;;;14.87;7.87;;;16.50;99.90;;;;;;5010904;28;20194;-89
2021/08/21 05:53:24;;;;;;;11.27;7.60;;;16.60;99.90;;;;;;5011133;28;20224;-88
2021/08/21 05:55:50;;;;;;;14.90;8.27;;;16.60;99.90;;;;;;5010064;28;20209;-88
2021/08/21 05:58:16;;;;;;;15.07;8.23;;;16.80;99.90;;;;;;5026770;28;20608;-88
2021/08/21 06:00:42;;;;;;;13.07;7.57;;;16.80;99.90;;;;;;5019580;28;20742;-89
2021/08/21 06:03:07;;;;;;;15.23;8.43;;;16.80;99.90;;;;;;5010246;28;20638;-89
2021/08/21 06:05:33;;;;;;;14.33;8.60;;;16.90;99.90;;;;;;5027711;28;20297;-89
2021/08/21 06:07:59;;;;;;;14.03;8.20;;;17.00;99.90;;;;;;5010513;28;20211;-89
2021/08/21 06:10:25;;;;;;;13.80;7.73;;;17.10;99.90;;;;;;5036493;28;20238;-89
2021/08/21 06:12:51;;;;;;;14.23;7.93;;;17.10;99.90;;;;;;5010630;28;20256;-89
2021/08/21 06:15:17;;;;;;;12.60;7.13;;;17.20;99.90;;;;;;5009539;28;20277;-89
2021/08/21 06:17:42;;;;;;;15.00;8.53;;;17.20;99.90;;;;;;5027328;28;20229;-89
2021/08/21 06:20:08;;;;;;;13.73;7.43;;;17.30;99.90;;;;;;5009961;28;20213;-88
2021/08/21 06:22:34;;;;;;;14.13;6.70;;;17.40;99.90;;;;;;5008754;28;20218;-88
2021/08/21 06:25:00;;;;;;;16.37;7.67;;;17.60;99.90;;;;;;5026150;28;20263;-88
2021/08/21 06:27:26;;;;;;;13.67;8.80;;;17.80;99.90;;;;;;5026389;28;20209;-88
2021/08/21 06:29:51;;;;;;;13.20;7.53;;;17.80;99.90;;;;;;5035417;28;20716;-89
2021/08/21 06:32:17;;;;;;;12.57;8.27;;;17.80;99.90;;;;;;5019510;28;20268;-89
2021/08/21 06:34:43;;;;;;;10.53;7.50;;;17.80;99.90;;;;;;5009736;28;20219;-90
2021/08/21 06:37:09;;;;;;;14.03;9.03;;;17.90;99.90;;;;;;5008538;28;20207;-89
2021/08/21 06:39:35;;;;;;;14.47;8.53;;;18.10;99.90;;;;;;5025822;28;20812;-90
2021/08/21 06:42:01;;;;;;;15.47;8.97;;;18.30;99.90;;;;;;5037123;28;20537;-89
2021/08/21 06:44:27;;;;;;;15.77;8.83;;;18.40;99.90;;;;;;5027267;28;20205;-90
2021/08/21 06:46:53;;;;;;;13.73;7.87;;;18.70;99.90;;;;;;5032533;28;21285;-89
2021/08/21 06:49:19;;;;;;;18.17;9.93;;;19.10;99.90;;;;;;5010000;28;20214;-90
2021/08/21 06:51:45;;;;;;;13.47;9.47;;;19.60;99.90;;;;;;5009655;28;20229;-89
2021/08/21 06:54:10;;;;;;;16.33;9.77;;;19.90;99.90;;;;;;5009162;28;20217;-88
2021/08/21 06:56:36;;;;;;;13.47;7.10;;;20.20;99.90;;;;;;5009590;28;20673;-88
2021/08/21 06:59:02;;;;;;;14.43;7.57;;;20.40;99.90;;;;;;5032237;28;20223;-88
2021/08/21 07:01:29;;;;;;;12.40;8.00;;;20.70;99.90;;;;;;5009574;28;20206;-88
2021/08/21 07:03:55;;;;;;;14.10;8.23;;;20.80;99.90;;;;;;5025837;28;20271;-88
2021/08/21 07:06:21;;;;;;;15.27;8.57;;;20.60;99.90;;;;;;5025246;28;20289;-88
2021/08/21 07:08:46;;;;;;;17.80;8.70;;;20.20;99.90;;;;;;5017270;28;20868;-88
2021/08/21 07:11:12;;;;;;;13.27;8.33;;;20.00;99.90;;;;;;5025055;28;20225;-88
2021/08/21 07:13:38;;;;;;;14.63;8.30;;;20.10;99.90;;;;;;5017545;28;20361;-88
2021/08/21 07:16:04;;;;;;;15.87;8.77;;;20.20;99.90;;;;;;5025858;28;20706;-89
2021/08/21 07:18:30;;;;;;;15.37;8.60;;;20.10;99.90;;;;;;5009372;28;20976;-88
2021/08/21 07:20:55;;;;;;;18.40;9.37;;;20.00;99.90;;;;;;5017487;28;20187;-88
2021/08/21 07:23:21;;;;;;;17.50;8.77;;;20.10;99.90;;;;;;5009168;28;20210;-90
2021/08/21 07:25:47;;;;;;;16.63;8.77;;;20.40;99.90;;;;;;5017469;28;20256;-88
2021/08/21 07:28:12;;;;;;;13.23;9.03;;;20.60;99.90;;;;;;5029420;28;20206;-89
2021/08/21 07:30:38;;;;;;;14.37;9.77;;;20.60;99.90;;;;;;5037027;28;20792;-89
2021/08/21 07:33:04;;;;;;;20.53;10.10;;;20.70;99.90;;;;;;5039224;28;20658;-89
2021/08/21 07:35:30;;;;;;;18.80;10.27;;;20.90;99.90;;;;;;5030472;28;20252;-89
2021/08/21 07:37:55;;;;;;;18.33;9.97;;;21.30;99.90;;;;;;5028965;28;20305;-89
2021/08/21 07:40:21;;;;;;;15.53;9.73;;;21.90;99.90;;;;;;5012621;28;20198;-89
2021/08/21 07:42:47;;;;;;;15.33;8.47;;;22.70;99.90;;;;;;5035860;28;20222;-89
2021/08/21 07:45:13;;;;;;;17.23;9.63;;;22.70;99.90;;;;;;5036843;28;20203;-89
2021/08/21 07:47:39;;;;;;;18.20;9.17;;;23.00;99.90;;;;;;5027376;28;20561;-89
2021/08/21 07:50:06;;;;;;;19.30;10.57;;;22.90;99.90;;;;;;5037381;28;20214;-90
2021/08/21 07:52:32;;;;;;;15.80;9.83;;;22.50;99.90;;;;;;5028952;28;20215;-89
2021/08/21 07:54:58;;;;;;;15.83;9.70;;;22.30;99.90;;;;;;5028632;28;20220;-90
2021/08/21 07:57:24;;;;;;;19.25;10.95;;;21.70;99.90;;;;;;5028653;28;20214;-90
2021/08/21 07:59:50;;;;;;;19.57;10.17;;;21.70;99.90;;;;;;5029847;28;20234;-90
2021/08/21 08:02:15;;;;;;;16.97;9.00;;;22.30;99.90;;;;;;5038153;28;20295;-89
2021/08/21 08:04:41;;;;;;;18.80;10.13;;;22.90;99.90;;;;;;5028282;28;20248;-89
2021/08/21 08:07:07;;;;;;;16.35;10.57;;;23.50;99.90;;;;;;5029234;28;20202;-89
2021/08/21 08:09:33;;;;;;;15.18;9.45;;;23.80;99.90;;;;;;5029188;28;20235;-89
2021/08/21 08:11:58;;;;;;;19.60;10.63;;;23.60;99.90;;;;;;5037408;28;20194;-88
2021/08/21 08:14:24;;;;;;;19.30;11.45;;;23.70;99.90;;;;;;5029038;28;20786;-90
2021/08/21 08:16:50;;;;;;;17.95;10.15;;;23.10;99.90;;;;;;5028722;28;20253;-90
2021/08/21 08:19:16;;;;;;;20.80;10.70;;;22.80;99.90;;;;;;5029486;28;20230;-91
2021/08/21 08:21:42;;;;;;;20.50;10.40;;;22.40;99.90;;;;;;5030068;28;20267;-89
2021/08/21 08:24:07;;;;;;;15.57;8.83;;;22.20;99.90;;;;;;5038443;28;20178;-90
2021/08/21 08:26:33;;;;;;;18.25;11.02;;;22.20;99.90;;;;;;5020827;28;20205;-90
2021/08/21 08:28:59;;;;;;;18.77;10.93;;;22.00;99.90;;;;;;5028880;28;20380;-90
2021/08/21 08:31:24;;;;;;;17.30;9.37;;;22.20;99.90;;;;;;5028610;28;20222;-90
2021/08/21 08:33:50;;;;;;;19.40;10.45;;;21.90;99.90;;;;;;5012304;28;20727;-90
2021/08/21 08:36:16;;;;;;;18.87;10.77;;;21.80;99.90;;;;;;5034017;28;20205;-90
2021/08/21 08:38:41;;;;;;;17.27;10.00;;;21.60;99.90;;;;;;5028676;28;20190;-90
2021/08/21 08:41:11;;;;;;;18.33;9.67;;;21.50;99.90;;;;;;5028202;28;20632;-90
2021/08/21 08:43:40;;;;;;;19.60;10.95;;;22.10;99.90;;;;;;5019724;28;20237;-90
2021/08/21 08:46:06;;;;;;;18.00;9.63;;;22.60;99.90;;;;;;5036501;28;20260;-90
2021/08/21 08:48:37;;;;;;;21.45;11.48;;;23.00;99.90;;;;;;5017816;28;20763;-90
2021/08/21 08:51:03;;;;;;;17.50;10.43;;;23.10;99.90;;;;;;5033528;28;20191;-90
2021/08/21 08:53:29;;;;;;;17.05;10.60;;;23.30;99.90;;;;;;5037695;28;20195;-90
2021/08/21 08:55:55;;;;;;;18.88;9.40;;;23.40;99.90;;;;;;5027298;28;20231;-90
2021/08/21 08:58:20;;;;;;;16.90;10.13;;;23.00;99.90;;;;;;5035996;28;20222;-90
2021/08/21 09:00:47;;;;;;;19.42;10.05;;;22.70;99.90;;;;;;5028592;28;20222;-90
2021/08/21 09:03:26;;;;;;;16.10;8.32;;;22.60;99.90;;;;;;5027707;28;20190;-90
2021/08/21 09:05:53;;;;;;;15.15;8.65;;;23.40;99.90;;;;;;5037006;28;21285;-91
2021/08/21 09:08:27;;;;;;;19.13;10.13;;;24.50;99.90;;;;;;5027646;28;20230;-90
2021/08/21 09:10:54;;;;;;;18.92;9.93;;;24.70;99.90;;;;;;5020522;28;20221;-90
2021/08/21 09:13:21;;;;;;;14.93;9.52;;;24.80;99.90;;;;;;5028068;28;20218;-90
2021/08/21 09:15:52;;;;;;;14.73;9.63;;;25.50;99.90;;;;;;5028208;28;20216;-91
2021/08/21 09:18:19;;;;;;;17.58;10.73;;;27.30;99.90;;;;;;5035612;28;20182;-95
2021/08/21 09:20:48;;;;;;;17.80;10.70;;;27.60;99.90;;;;;;5035663;28;20281;-94
2021/08/21 09:23:33;;;;;;;16.20;10.85;;;26.00;99.90;;;;;;5035978;28;20207;-94
2021/08/21 09:26:34;;;;;;;21.33;10.32;;;24.00;99.90;;;;;;5034421;28;20234;-93
2021/08/21 09:29:02;;;;;;;18.77;9.45;;;23.20;99.90;;;;;;5035758;28;20206;-93
2021/08/21 09:31:34;;;;;;;17.60;10.32;;;24.10;99.90;;;;;;5037347;28;20209;-93
2021/08/21 09:34:07;;;;;;;18.38;10.98;;;25.10;99.90;;;;;;5010802;28;20207;-93
2021/08/21 09:36:38;;;;;;;18.17;10.00;;;26.30;99.90;;;;;;5027181;28;20214;-94
2021/08/21 09:39:06;;;;;;;15.23;10.70;;;27.90;99.90;;;;;;5036732;28;20182;-94
2021/08/21 09:41:58;;;;;;;16.70;10.60;;;28.50;99.90;;;;;;5035747;28;20205;-93
2021/08/21 09:44:26;;;;;;;15.50;9.48;;;28.60;99.90;;;;;;5034344;28;20253;-90
2021/08/21 09:47:29;;;;;;;16.05;9.38;;;28.90;99.90;;;;;;5036685;28;20213;-90
2021/08/21 09:50:15;;;;;;;15.93;8.98;;;28.80;99.90;;;;;;4960077;28;20219;-91
2021/08/21 09:52:41;;;;;;;16.15;10.02;;;27.30;99.90;;;;;;5037635;28;20241;-91
2021/08/21 09:55:19;;;;;;;18.17;10.80;;;26.10;99.90;;;;;;5026218;28;20300;-91
2021/08/21 09:58:01;;;;;;;16.85;9.70;;;25.90;99.90;;;;;;5034535;28;20221;-91
2021/08/21 10:00:29;;;;;;;15.45;9.00;;;26.10;99.90;;;;;;5035761;28;20248;-91
2021/08/21 10:02:58;;;;;;;14.20;8.48;;;26.60;99.90;;;;;;5027574;28;20668;-91
2021/08/21 10:05:25;;;;;;;15.98;9.50;;;26.90;99.90;;;;;;5033985;28;20246;-91
2021/08/21 10:07:58;;;;;;;16.83;10.05;;;26.10;99.90;;;;;;5027875;28;20220;-90
2021/08/21 10:10:34;;;;;;;11.80;8.43;;;25.40;99.90;;;;;;5034794;28;20222;-91
2021/08/21 10:13:08;;;;;;;13.25;8.52;;;25.00;99.90;;;;;;5015542;28;20912;-91
2021/08/21 10:15:42;;;;;;;16.00;7.75;;;24.50;99.90;;;;;;5032875;28;20213;-91
2021/08/21 10:18:09;;;;;;;8.73;6.85;;;24.40;99.90;;;;;;5034583;28;20196;-90
2021/08/21 10:20:37;;;;;;;11.30;6.93;;;24.90;99.90;;;;;;5019731;28;20687;-91
2021/08/21 10:23:08;;;;;;;12.30;7.30;;;25.90;99.90;;;;;;5035878;28;20210;-91
2021/08/21 10:25:35;;;;;;;8.52;5.22;;;27.00;99.90;;;;;;5035867;28;20325;-91
2021/08/21 10:28:03;;;;;;;9.25;6.40;;;26.80;99.90;;;;;;5032582;28;20206;-91
2021/08/21 10:30:44;;;;;;;11.30;7.68;;;26.70;99.90;;;;;;5035004;28;20222;-90
2021/08/21 10:33:10;;;;;;;9.70;6.43;;;26.80;99.90;;;;;;5036524;28;20213;-91
2021/08/21 10:35:56;;;;;;;8.73;6.38;;;25.70;99.90;;;;;;5034416;28;21302;-90
2021/08/21 10:38:31;;;;;;;11.95;7.25;;;24.90;99.90;;;;;;5033527;28;20797;-91
2021/08/21 10:41:00;;;;;;;9.73;7.35;;;24.70;99.90;;;;;;5034182;28;20218;-90
2021/08/21 10:43:43;;;;;;;10.13;6.55;;;24.90;99.90;;;;;;5034896;28;20219;-90
2021/08/21 10:46:08;;;;;;;9.57;5.78;;;25.40;99.90;;;;;;5027968;28;20734;-91
2021/08/21 10:48:37;;;;;;;9.98;5.70;;;26.00;99.90;;;;;;5009653;28;20217;-90
2021/08/21 10:51:26;;;;;;;11.50;6.53;;;26.20;99.90;;;;;;5033898;28;20562;-92
2021/08/21 10:53:52;;;;;;;11.57;7.97;;;25.70;99.90;;;;;;5036076;28;20216;-91
2021/08/21 10:56:36;;;;;;;14.85;8.27;;;25.10;99.90;;;;;;5027317;28;20240;-92
2021/08/21 10:59:02;;;;;;;11.52;7.70;;;25.20;99.90;;;;;;5034066;28;20233;-92
2021/08/21 11:01:28;;;;;;;12.20;7.70;;;24.40;99.90;;;;;;5037938;28;20589;-92
2021/08/21 11:03:54;;;;;;;12.85;7.50;;;23.40;99.90;;;;;;5030417;28;20359;-92
2021/08/21 11:06:37;;;;;;;12.73;8.30;;;22.70;99.90;;;;;;5029881;28;20795;-91
2021/08/21 11:09:05;;;;;;;14.63;8.63;;;22.60;99.90;;;;;;5039235;28;20230;-91
2021/08/21 11:11:38;;;;;;;16.10;9.00;;;22.40;99.90;;;;;;5038862;28;20206;-91
2021/08/21 11:14:24;;;;;;;15.25;9.93;;;22.60;99.90;;;;;;5036446;28;20203;-92
2021/08/21 11:16:56;;;;;;;14.20;9.02;;;22.70;99.90;;;;;;5037068;28;20218;-92
2021/08/21 11:19:22;;;;;;;15.13;8.15;;;22.30;99.90;;;;;;5046712;28;20308;-92
2021/08/21 11:21:49;;;;;;;13.27;8.38;;;22.40;99.90;;;;;;5038578;28;20305;-92
2021/08/21 11:24:29;;;;;;;15.27;7.95;;;22.40;99.90;;;;;;5039157;28;20198;-91
2021/08/21 11:27:22;;;;;;;14.93;9.10;;;22.40;99.90;;;;;;5030739;28;20230;-91
2021/08/21 11:30:21;;;;;;;18.85;9.27;;;22.10;99.90;;;;;;5039845;28;20307;-91
2021/08/21 11:33:03;;;;;;;18.25;9.80;;;22.30;99.90;;;;;;5023825;28;20232;-92
2021/08/21 11:35:50;;;;;;;16.35;8.73;;;22.80;99.90;;;;;;5037612;28;20218;-90
2021/08/21 11:38:26;;;;;;;9.75;7.25;;;24.20;99.90;;;;;;5036663;28;20658;-89
2021/08/21 11:40:53;;;;;;;12.93;7.53;;;25.10;99.90;;;;;;5037414;28;20220;-89
2021/08/21 11:43:41;;;;;;;16.35;8.88;;;25.20;99.90;;;;;;5028362;28;20720;-90
2021/08/21 11:46:07;;;;;;;13.13;8.38;;;24.70;99.90;;;;;;5028927;28;20253;-90
2021/08/21 11:48:35;;;;;;;12.50;8.55;;;25.00;99.90;;;;;;5038571;28;20214;-90
2021/08/21 11:51:04;;;;;;;14.88;8.65;;;25.20;99.90;;;;;;5029201;28;20190;-90
2021/08/21 11:53:38;;;;;;;11.90;7.00;;;24.70;99.90;;;;;;5029114;28;20323;-90
2021/08/21 11:56:04;;;;;;;9.82;6.38;;;23.90;99.90;;;;;;5037502;28;20248;-90
2021/08/21 11:58:31;;;;;;;13.15;6.70;;;24.60;99.90;;;;;;5036946;28;20249;-90
2021/08/21 12:01:09;;;;;;;13.30;8.13;;;25.30;99.90;;;;;;5037129;28;20321;-90
2021/08/21 12:06:26;;;;;;;12.52;7.50;;;24.30;99.90;;;;;;5036526;28;20776;-90
2021/08/21 12:09:15;;;;;;;11.38;8.13;;;23.90;99.90;;;;;;5035719;28;20321;-90
2021/08/21 12:11:46;;;;;;;12.65;8.60;;;23.60;99.90;;;;;;5038805;28;20217;-90
2021/08/21 12:14:13;;;;;;;14.07;9.23;;;23.50;99.90;;;;;;5036557;28;20257;-90
2021/08/21 12:16:40;;;;;;;10.40;6.30;;;23.90;99.90;;;;;;5035766;28;20682;-90
2021/08/21 12:19:06;;;;;;;3.80;2.65;;;23.90;99.90;;;;;;5028381;28;20217;-90
2021/08/21 12:21:33;;;;;;;4.10;2.50;;;24.40;99.90;;;;;;5029199;28;20218;-90
2021/08/21 12:23:59;;;;;;;4.55;3.08;;;24.90;99.90;;;;;;5037698;28;20199;-90
2021/08/21 12:26:45;;;;;;;5.60;3.05;;;25.10;99.90;;;;;;5028272;28;21055;-91
2021/08/21 12:29:30;;;;;;;3.97;2.92;;;25.60;99.90;;;;;;5036308;28;20312;-90
2021/08/21 12:31:57;;;;;;;5.18;3.10;;;25.80;99.90;;;;;;5037586;28;20300;-90
2021/08/21 12:34:25;;;;;;;5.78;4.25;;;25.80;99.90;;;;;;5020252;28;20198;-90
2021/08/21 12:36:52;;;;;;;5.72;3.75;;;25.80;99.90;;;;;;5034540;28;20924;-91
2021/08/21 12:39:26;;;;;;;5.18;3.50;;;26.00;99.90;;;;;;5035645;28;20244;-90
2021/08/21 12:42:02;;;;;;;6.20;3.03;;;26.10;99.90;;;;;;5028346;28;20193;-92
2021/08/21 12:44:33;;;;;;;3.33;2.85;;;26.00;99.90;;;;;;5038970;28;20354;-95
2021/08/21 12:47:01;;;;;;;4.78;3.58;;;25.90;99.90;;;;;;5036489;28;20244;-93